createdAt,value
2022-08-07T00:02:39.884Z,16.13
2022-08-07T00:04:57.937Z,15.95
2022-08-07T00:07:40.518Z,16.10
2022-08-07T00:10:26.558Z,15.96
2022-08-07T00:12:43.776Z,15.93
2022-08-07T00:15:10.832Z,15.82
2022-08-07T00:17:41.852Z,15.80
2022-08-07T00:20:15.718Z,15.77
2022-08-07T00:22:51.596Z,15.92
2022-08-07T00:25:18.662Z,15.97
2022-08-07T00:27:52.567Z,16.00
2022-08-07T00:30:27.083Z,15.96
2022-08-07T00:33:00.487Z,15.74
2022-08-07T00:35:36.713Z,15.79
2022-08-07T00:38:05.050Z,15.86
2022-08-07T00:40:40.358Z,15.84
2022-08-07T00:43:59.244Z,15.68
2022-08-07T00:45:46.461Z,15.62
2022-08-07T00:48:18.760Z,15.59
2022-08-07T00:50:51.694Z,15.67
2022-08-07T00:53:23.193Z,15.52
2022-08-07T00:56:03.021Z,15.58
2022-08-07T00:58:27.170Z,15.87
2022-08-07T01:00:57.811Z,15.74
2022-08-07T01:03:57.391Z,15.73
2022-08-07T01:06:04.032Z,15.66
2022-08-07T01:08:36.278Z,15.58
2022-08-07T01:12:04.666Z,15.60
2022-08-07T01:13:55.594Z,15.44
2022-08-07T01:16:30.219Z,15.30
2022-08-07T01:18:49.872Z,15.34
2022-08-07T01:21:26.003Z,15.21
2022-08-07T01:23:57.744Z,15.34
2022-08-07T01:26:29.077Z,15.32
2022-08-07T01:29:00.703Z,15.22
2022-08-07T01:31:42.285Z,15.44
2022-08-07T01:34:07.678Z,15.14
2022-08-07T01:36:40.584Z,15.16
2022-08-07T01:39:11.956Z,15.10
2022-08-07T01:42:07.849Z,15.05
2022-08-07T01:44:16.736Z,14.98
2022-08-07T01:46:47.436Z,14.98
2022-08-07T01:49:18.015Z,15.19
2022-08-07T01:52:02.261Z,15.14
2022-08-07T01:54:32.814Z,15.06
2022-08-07T01:57:04.191Z,15.06
2022-08-07T01:59:51.508Z,15.08
2022-08-07T02:03:12.550Z,14.94
2022-08-07T02:05:16.184Z,14.95
2022-08-07T02:07:55.226Z,14.93
2022-08-07T02:10:27.694Z,14.90
2022-08-07T02:13:00.714Z,15.06
2022-08-07T02:15:34.081Z,14.96
2022-08-07T02:18:06.628Z,14.90
2022-08-07T02:20:37.604Z,14.93
2022-08-07T02:23:11.605Z,14.82
2022-08-07T02:26:31.145Z,14.91
2022-08-07T02:28:25.403Z,14.98
2022-08-07T02:30:52.912Z,15.01
2022-08-07T02:33:42.177Z,15.06
2022-08-07T02:36:30.618Z,15.04
2022-08-07T02:38:34.596Z,15.04
2022-08-07T02:41:08.028Z,15.14
2022-08-07T02:43:42.044Z,15.16
2022-08-07T02:46:14.372Z,14.98
2022-08-07T02:48:47.202Z,14.90
2022-08-07T02:51:42.768Z,14.94
2022-08-07T02:53:54.899Z,14.90
2022-08-07T02:56:28.686Z,14.81
2022-08-07T02:59:05.761Z,14.66
2022-08-07T03:01:40.207Z,14.59
2022-08-07T03:04:13.846Z,14.66
2022-08-07T03:06:46.179Z,14.64
2022-08-07T03:09:43.182Z,14.72
2022-08-07T03:11:58.045Z,14.53
2022-08-07T03:14:25.600Z,14.53
2022-08-07T03:16:57.388Z,14.65
2022-08-07T03:19:28.957Z,14.74
2022-08-07T03:22:01.105Z,14.76
2022-08-07T03:24:31.888Z,14.73
2022-08-07T03:27:05.492Z,14.63
2022-08-07T03:29:49.335Z,14.62
2022-08-07T03:32:15.283Z,14.69
2022-08-07T03:35:00.829Z,14.68
2022-08-07T03:37:27.715Z,14.59
2022-08-07T03:40:14.758Z,14.65
2022-08-07T03:42:27.598Z,14.78
2022-08-07T03:44:58.361Z,14.93
2022-08-07T03:47:48.272Z,14.86
2022-08-07T03:50:04.833Z,14.78
2022-08-07T03:52:38.386Z,14.78
2022-08-07T03:55:10.830Z,14.83
2022-08-07T03:58:35.152Z,14.79
2022-08-07T04:00:16.131Z,14.70
2022-08-07T04:02:46.645Z,14.72
2022-08-07T04:05:24.052Z,14.88
2022-08-07T04:07:56.106Z,14.85
2022-08-07T04:10:26.584Z,14.74
2022-08-07T04:12:59.035Z,15.10
2022-08-07T04:15:30.206Z,14.99
2022-08-07T04:18:56.215Z,14.87
2022-08-07T04:20:35.734Z,14.80
2022-08-07T04:23:06.781Z,14.94
2022-08-07T04:25:40.820Z,15.05
2022-08-07T04:28:13.389Z,14.98
2022-08-07T04:30:57.237Z,15.22
2022-08-07T04:33:18.791Z,15.13
2022-08-07T04:35:50.429Z,15.25
2022-08-07T04:38:22.825Z,15.24
2022-08-07T04:40:56.790Z,15.25
2022-08-07T04:44:13.231Z,15.60
2022-08-07T04:47:04.640Z,15.48
2022-08-07T04:49:24.549Z,15.70
2022-08-07T04:51:58.732Z,15.60
2022-08-07T04:54:36.800Z,15.60
2022-08-07T04:58:13.927Z,15.63
2022-08-07T05:00:24.143Z,15.74
2022-08-07T05:02:57.320Z,15.92
2022-08-07T05:05:53.028Z,15.97
2022-08-07T05:08:16.646Z,16.34
2022-08-07T05:11:02.607Z,18.15
2022-08-07T05:14:53.107Z,19.64
2022-08-07T05:16:12.835Z,20.71
2022-08-07T05:18:49.866Z,21.65
2022-08-07T05:22:00.726Z,21.68
2022-08-07T05:24:02.987Z,23.42
2022-08-07T05:26:35.002Z,23.61
2022-08-07T05:29:10.273Z,23.69
2022-08-07T05:31:51.111Z,25.03
2022-08-07T05:34:17.868Z,23.49
2022-08-07T05:36:52.817Z,23.75
2022-08-07T05:40:13.991Z,24.53
2022-08-07T05:42:03.048Z,23.12
2022-08-07T05:44:31.053Z,24.76
2022-08-07T05:47:18.429Z,24.34
2022-08-07T05:49:40.650Z,25.88
2022-08-07T05:52:11.804Z,26.26
2022-08-07T05:54:44.351Z,24.48
2022-08-07T05:57:15.825Z,24.26
2022-08-07T05:59:57.812Z,23.52
2022-08-07T06:02:28.537Z,26.77
2022-08-07T06:04:57.400Z,26.23
2022-08-07T06:08:14.648Z,24.46
2022-08-07T06:10:05.232Z,24.77
2022-08-07T06:12:35.638Z,28.70
2022-08-07T06:15:07.676Z,28.54
2022-08-07T06:17:38.659Z,31.05
2022-08-07T06:20:12.719Z,25.67
2022-08-07T06:23:01.748Z,25.23
2022-08-07T06:25:17.592Z,25.80
2022-08-07T06:28:01.291Z,24.59
2022-08-07T06:30:32.310Z,27.04
2022-08-07T06:32:54.150Z,25.20
2022-08-07T06:35:24.578Z,25.18
2022-08-07T06:37:58.796Z,24.97
2022-08-07T06:40:45.950Z,25.35
2022-08-07T06:43:21.222Z,27.75
2022-08-07T06:45:48.505Z,29.95
2022-08-07T06:48:25.102Z,29.69
2022-08-07T06:50:52.199Z,25.48
2022-08-07T06:54:12.073Z,23.90
2022-08-07T06:56:01.578Z,23.59
2022-08-07T06:58:32.106Z,20.92
2022-08-07T07:01:06.403Z,20.22
2022-08-07T07:03:49.961Z,20.46
2022-08-07T07:06:13.288Z,20.73
2022-08-07T07:08:46.753Z,20.42
2022-08-07T07:12:08.580Z,20.17
2022-08-07T07:13:58.127Z,19.83
2022-08-07T07:16:27.470Z,19.93
2022-08-07T07:19:11.543Z,20.16
2022-08-07T07:21:40.425Z,20.12
2022-08-07T07:24:12.702Z,20.23
2022-08-07T07:26:51.723Z,19.89
2022-08-07T07:29:38.896Z,20.10
2022-08-07T07:31:55.482Z,20.20
2022-08-07T07:34:31.176Z,20.25
2022-08-07T07:37:14.809Z,20.49
2022-08-07T07:39:52.519Z,20.35
2022-08-07T07:42:17.651Z,20.42
2022-08-07T07:44:49.516Z,19.95
2022-08-07T07:47:23.700Z,19.71
2022-08-07T07:50:34.691Z,19.70
2022-08-07T07:52:29.282Z,19.63
2022-08-07T07:55:01.939Z,19.30
2022-08-07T07:57:52.191Z,19.36
2022-08-07T08:00:12.093Z,19.21
2022-08-07T08:03:04.891Z,19.50
2022-08-07T08:05:19.433Z,19.75
2022-08-07T08:08:01.458Z,19.96
2022-08-07T08:10:38.009Z,20.18
2022-08-07T08:13:00.582Z,20.26
2022-08-07T08:15:57.696Z,20.48
2022-08-07T08:18:17.593Z,20.55
2022-08-07T08:20:44.931Z,20.37
2022-08-07T08:23:37.929Z,20.60
2022-08-07T08:26:28.394Z,20.65
2022-08-07T08:29:01.982Z,20.76
2022-08-07T08:31:58.904Z,20.51
2022-08-07T08:34:12.568Z,20.77
2022-08-07T08:36:46.170Z,20.23
2022-08-07T08:39:17.354Z,20.25
2022-08-07T08:41:57.919Z,20.12
2022-08-07T08:44:40.893Z,20.52
2022-08-07T08:47:22.443Z,20.66
2022-08-07T08:50:39.453Z,20.73
2022-08-07T08:53:29.425Z,20.74
2022-08-07T08:56:06.013Z,20.54
2022-08-07T08:58:41.176Z,20.92
2022-08-07T09:01:40.241Z,21.18
2022-08-07T09:04:33.993Z,21.28
2022-08-07T09:07:23.139Z,21.44
2022-08-07T09:10:03.356Z,21.44
2022-08-07T09:12:53.289Z,21.57
2022-08-07T09:16:24.756Z,21.55
2022-08-07T09:18:25.963Z,21.60
2022-08-07T09:21:57.930Z,22.25
2022-08-07T09:24:31.730Z,22.41
2022-08-07T09:27:17.912Z,22.28
2022-08-07T09:30:03.873Z,22.49
2022-08-07T09:33:16.433Z,22.36
2022-08-07T09:36:05.469Z,22.04
2022-08-07T09:38:26.535Z,22.11
2022-08-07T09:41:19.482Z,22.20
2022-08-07T09:44:19.183Z,22.43
2022-08-07T09:47:50.934Z,22.90
2022-08-07T09:50:19.642Z,22.63
2022-08-07T09:52:38.549Z,22.72
2022-08-07T09:55:16.880Z,23.04
2022-08-07T09:58:16.110Z,22.98
2022-08-07T10:01:51.375Z,23.14
2022-08-07T10:04:14.975Z,23.00
2022-08-07T10:07:01.179Z,22.69
2022-08-07T10:10:02.593Z,23.01
2022-08-07T10:12:52.633Z,22.97
2022-08-07T10:15:21.490Z,23.26
2022-08-07T10:18:20.102Z,23.36
2022-08-07T10:21:50.650Z,23.58
2022-08-07T10:24:21.387Z,24.10
2022-08-07T10:27:01.413Z,24.14
2022-08-07T10:29:46.040Z,24.61
2022-08-07T10:32:53.744Z,24.20
2022-08-07T10:35:16.526Z,24.72
2022-08-07T10:38:09.619Z,25.02
2022-08-07T10:40:37.020Z,25.14
2022-08-07T10:43:21.263Z,25.29
2022-08-07T10:46:02.525Z,23.10
2022-08-07T10:48:53.654Z,23.77
2022-08-07T10:51:39.329Z,24.40
2022-08-07T10:54:28.439Z,24.66
2022-08-07T10:57:11.172Z,24.52
2022-08-07T11:00:02.124Z,24.87
2022-08-07T11:02:48.984Z,24.20
2022-08-07T11:05:51.597Z,23.20
2022-08-07T11:08:40.280Z,23.28
2022-08-07T11:11:20.271Z,24.05
2022-08-07T11:14:46.137Z,24.40
2022-08-07T11:16:40.220Z,24.55
2022-08-07T11:19:21.388Z,24.94
2022-08-07T11:22:11.180Z,25.06
2022-08-07T11:24:45.619Z,24.83
2022-08-07T11:28:00.993Z,24.83
2022-08-07T11:30:18.077Z,24.66
2022-08-07T11:32:50.676Z,24.67
2022-08-07T11:35:26.851Z,24.53
2022-08-07T11:38:12.698Z,23.90
2022-08-07T11:40:59.951Z,24.32
2022-08-07T11:44:10.640Z,24.36
2022-08-07T11:46:36.716Z,24.14
2022-08-07T11:50:25.460Z,23.68
2022-08-07T11:52:52.976Z,23.66
2022-08-07T11:56:11.927Z,23.76
2022-08-07T11:59:03.284Z,23.99
2022-08-07T12:02:00.595Z,24.44
2022-08-07T12:04:26.172Z,24.66
2022-08-07T12:07:03.019Z,24.80
2022-08-07T12:09:51.129Z,25.04
2022-08-07T12:12:30.859Z,24.81
2022-08-07T12:15:04.827Z,24.38
2022-08-07T12:17:59.811Z,24.50
2022-08-07T12:20:49.309Z,24.71
2022-08-07T12:24:06.001Z,25.16
2022-08-07T12:26:28.919Z,25.71
2022-08-07T12:28:53.940Z,25.99
2022-08-07T12:31:53.260Z,26.19
2022-08-07T12:34:11.201Z,26.33
2022-08-07T12:36:50.013Z,26.57
2022-08-07T12:39:43.869Z,26.58
2022-08-07T12:41:54.347Z,26.78
2022-08-07T12:44:27.765Z,26.77
2022-08-07T12:47:07.502Z,24.90
2022-08-07T12:49:53.306Z,25.86
2022-08-07T12:52:41.023Z,26.12
2022-08-07T12:55:41.336Z,26.63
2022-08-07T12:58:10.792Z,26.55
2022-08-07T13:01:09.416Z,24.94
2022-08-07T13:04:31.754Z,24.47
2022-08-07T13:07:17.931Z,24.16
2022-08-07T13:10:28.515Z,24.51
2022-08-07T13:12:39.329Z,24.96
2022-08-07T13:15:45.621Z,25.06
2022-08-07T13:18:44.819Z,25.64
2022-08-07T13:21:37.803Z,26.10
2022-08-07T13:24:04.744Z,25.70
2022-08-07T13:26:53.134Z,25.74
2022-08-07T13:29:28.517Z,25.92
2022-08-07T13:32:32.611Z,26.45
2022-08-07T13:34:44.658Z,26.21
2022-08-07T13:37:26.734Z,26.10
2022-08-07T13:40:35.643Z,26.06
2022-08-07T13:42:51.176Z,25.77
2022-08-07T13:46:11.712Z,26.06
2022-08-07T13:48:05.918Z,25.06
2022-08-07T13:50:34.507Z,25.12
2022-08-07T13:53:04.432Z,25.39
2022-08-07T13:55:38.787Z,25.50
2022-08-07T13:58:31.727Z,25.79
2022-08-07T14:01:20.472Z,25.02
2022-08-07T14:04:05.562Z,24.42
2022-08-07T14:06:25.853Z,24.85
2022-08-07T14:08:56.741Z,24.38
2022-08-07T14:12:00.362Z,24.91
2022-08-07T14:14:08.091Z,24.25
2022-08-07T14:16:41.552Z,24.34
2022-08-07T14:20:43.086Z,24.06
2022-08-07T14:22:02.997Z,24.38
2022-08-07T14:24:29.106Z,24.07
2022-08-07T14:28:09.565Z,23.93
2022-08-07T14:30:05.251Z,24.18
2022-08-07T14:32:27.310Z,24.19
2022-08-07T14:35:04.119Z,24.13
2022-08-07T14:37:39.238Z,23.93
2022-08-07T14:40:17.024Z,23.98
2022-08-07T14:43:55.499Z,24.28
2022-08-07T14:45:24.302Z,24.31
2022-08-07T14:47:59.240Z,23.96
2022-08-07T14:50:37.788Z,23.83
2022-08-07T14:53:08.046Z,23.57
2022-08-07T14:55:55.763Z,23.93
2022-08-07T14:58:24.130Z,23.54
2022-08-07T15:00:51.921Z,23.24
2022-08-07T15:03:52.284Z,23.24
2022-08-07T15:06:03.623Z,23.36
2022-08-07T15:11:16.318Z,23.39
2022-08-07T15:13:57.660Z,23.42
2022-08-07T15:16:55.127Z,23.48
2022-08-07T15:20:30.654Z,23.33
2022-08-07T15:22:04.589Z,23.30
2022-08-07T15:27:15.672Z,23.12
2022-08-07T15:30:06.885Z,22.91
2022-08-07T15:32:39.781Z,23.01
2022-08-07T15:34:59.136Z,22.83
2022-08-07T15:38:04.813Z,23.05
2022-08-07T15:40:11.775Z,22.87
2022-08-07T15:42:48.274Z,22.93
2022-08-07T15:45:57.347Z,23.07
2022-08-07T15:48:09.325Z,22.95
2022-08-07T15:51:08.263Z,23.06
2022-08-07T15:53:51.863Z,23.31
2022-08-07T15:56:14.265Z,23.28
2022-08-07T15:58:52.395Z,23.24
2022-08-07T16:01:38.458Z,23.63
2022-08-07T16:04:04.978Z,23.61
2022-08-07T16:06:39.841Z,23.74
2022-08-07T16:09:22.518Z,23.51
2022-08-07T16:12:30.521Z,23.40
2022-08-07T16:14:59.319Z,23.30
2022-08-07T16:18:01.296Z,23.32
2022-08-07T16:20:10.706Z,23.06
2022-08-07T16:22:55.328Z,23.09
2022-08-07T16:25:52.502Z,23.07
2022-08-07T16:30:07.734Z,23.11
2022-08-07T16:31:50.376Z,23.20
2022-08-07T16:34:01.835Z,23.22
2022-08-07T16:37:02.432Z,23.35
2022-08-07T16:40:02.772Z,23.54
2022-08-07T16:42:56.339Z,23.62
2022-08-07T16:46:40.936Z,24.04
2022-08-07T16:50:20.024Z,23.76
2022-08-07T16:52:50.554Z,23.85
2022-08-07T16:54:56.006Z,23.18
2022-08-07T16:58:02.364Z,23.06
2022-08-07T17:00:15.401Z,23.38
2022-08-07T17:03:17.506Z,23.22
2022-08-07T17:06:30.446Z,23.25
2022-08-07T17:09:14.396Z,23.42
2022-08-07T17:12:05.398Z,23.98
2022-08-07T17:14:33.223Z,24.11
2022-08-07T17:17:07.048Z,24.42
2022-08-07T17:20:02.853Z,24.29
2022-08-07T17:22:18.326Z,24.84
2022-08-07T17:25:10.171Z,24.50
2022-08-07T17:28:02.040Z,24.89
2022-08-07T17:30:58.073Z,25.12
2022-08-07T17:34:10.023Z,25.12
2022-08-07T17:36:20.510Z,24.44
2022-08-07T17:39:15.324Z,24.12
2022-08-07T17:42:08.898Z,24.85
2022-08-07T17:44:54.713Z,24.41
2022-08-07T17:47:42.864Z,24.56
2022-08-07T17:50:30.214Z,24.67
2022-08-07T17:53:01.039Z,24.30
2022-08-07T17:56:01.117Z,24.12
2022-08-07T17:58:12.287Z,23.70
2022-08-07T18:00:48.998Z,22.96
2022-08-07T18:04:04.446Z,23.27
2022-08-07T18:06:09.456Z,23.29
2022-08-07T18:09:05.457Z,23.10
2022-08-07T18:12:12.003Z,22.84
2022-08-07T18:14:23.843Z,22.76
2022-08-07T18:16:58.791Z,22.74
2022-08-07T18:21:11.699Z,22.56
2022-08-07T18:22:34.411Z,22.25
2022-08-07T18:25:24.191Z,22.17
2022-08-07T18:28:01.362Z,22.11
2022-08-07T18:30:46.843Z,22.02
2022-08-07T18:33:35.676Z,22.14
2022-08-07T18:36:15.784Z,21.92
2022-08-07T18:40:07.444Z,21.96
2022-08-07T18:41:47.679Z,21.73
2022-08-07T18:45:40.020Z,21.61
2022-08-07T18:47:38.025Z,21.65
2022-08-07T18:50:38.869Z,21.74
2022-08-07T18:53:06.364Z,21.74
2022-08-07T18:56:03.700Z,21.62
2022-08-07T18:58:54.072Z,21.37
2022-08-07T19:02:32.682Z,21.33
2022-08-07T19:04:33.698Z,21.32
2022-08-07T19:06:58.358Z,21.19
2022-08-07T19:09:56.148Z,21.18
2022-08-07T19:12:48.886Z,21.13
2022-08-07T19:16:05.024Z,21.06
2022-08-07T19:18:02.782Z,21.07
2022-08-07T19:21:09.843Z,21.04
2022-08-07T19:23:58.177Z,20.88
2022-08-07T19:26:23.929Z,20.88
2022-08-07T19:30:54.612Z,20.74
2022-08-07T19:31:40.580Z,20.70
2022-08-07T19:33:57.988Z,20.85
2022-08-07T19:36:27.500Z,20.96
2022-08-07T19:38:56.086Z,20.80
2022-08-07T19:41:39.386Z,20.64
2022-08-07T19:44:21.201Z,20.76
2022-08-07T19:46:55.229Z,20.81
2022-08-07T19:49:57.368Z,20.58
2022-08-07T19:52:00.356Z,20.47
2022-08-07T19:54:34.784Z,20.48
2022-08-07T19:58:01.618Z,20.38
2022-08-07T19:59:40.540Z,20.32
2022-08-07T20:02:19.823Z,20.34
2022-08-07T20:04:51.708Z,20.36
2022-08-07T20:07:46.265Z,20.38
2022-08-07T20:10:37.126Z,20.31
2022-08-07T20:12:35.913Z,20.24
2022-08-07T20:15:18.922Z,20.16
2022-08-07T20:17:43.829Z,20.22
2022-08-07T20:20:18.705Z,20.18
2022-08-07T20:22:54.916Z,20.06
2022-08-07T20:25:28.569Z,19.98
2022-08-07T20:28:08.182Z,19.94
2022-08-07T20:30:41.679Z,19.90
2022-08-07T20:33:24.404Z,19.83
2022-08-07T20:36:03.029Z,19.84
2022-08-07T20:38:24.642Z,19.77
2022-08-07T20:40:58.596Z,19.69
2022-08-07T20:43:30.918Z,19.87
2022-08-07T20:46:26.007Z,19.74
2022-08-07T20:48:37.920Z,19.73
2022-08-07T20:51:10.004Z,19.49
2022-08-07T20:54:02.936Z,19.42
2022-08-07T20:56:16.046Z,19.38
2022-08-07T20:58:49.670Z,19.28
2022-08-07T21:01:23.167Z,19.27
2022-08-07T21:04:19.647Z,19.34
2022-08-07T21:06:34.070Z,19.35
2022-08-07T21:09:14.192Z,19.44
2022-08-07T21:11:50.953Z,19.49
2022-08-07T21:14:33.670Z,19.41
2022-08-07T21:16:56.990Z,19.46
2022-08-07T21:19:51.770Z,19.51
2022-08-07T21:22:07.105Z,19.42
2022-08-07T21:25:12.844Z,19.16
2022-08-07T21:27:47.732Z,19.12
2022-08-07T21:30:23.506Z,19.22
2022-08-07T21:33:17.648Z,19.06
2022-08-07T21:36:06.718Z,19.09
2022-08-07T21:38:49.717Z,19.12
2022-08-07T21:41:52.128Z,19.02
2022-08-07T21:44:28.245Z,19.08
2022-08-07T21:47:12.450Z,18.96
2022-08-07T21:50:02.337Z,19.09
2022-08-07T21:52:48.558Z,18.96
2022-08-07T21:55:29.783Z,18.78
2022-08-07T21:58:30.654Z,18.73
2022-08-07T22:01:04.020Z,18.66
2022-08-07T22:03:50.785Z,18.64
2022-08-07T22:06:31.478Z,18.72
2022-08-07T22:09:08.198Z,18.72
2022-08-07T22:11:53.348Z,18.68
2022-08-07T22:14:34.544Z,18.64
2022-08-07T22:16:53.241Z,18.59
2022-08-07T22:19:36.987Z,18.57
2022-08-07T22:22:21.290Z,18.39
2022-08-07T22:24:57.736Z,18.35
2022-08-07T22:28:02.923Z,18.31
2022-08-07T22:30:12.678Z,18.19
2022-08-07T22:32:58.274Z,18.12
2022-08-07T22:35:40.316Z,18.18
2022-08-07T22:38:12.164Z,18.05
2022-08-07T22:40:49.186Z,18.02
2022-08-07T22:43:23.434Z,18.01
2022-08-07T22:47:02.152Z,18.20
2022-08-07T22:49:09.595Z,18.29
2022-08-07T22:51:52.302Z,18.34
2022-08-07T22:54:49.067Z,18.38
2022-08-07T22:57:37.389Z,18.19
2022-08-07T23:00:28.791Z,18.12
2022-08-07T23:03:00.521Z,18.27
2022-08-07T23:06:10.235Z,18.22
2022-08-07T23:08:30.224Z,18.20
2022-08-07T23:11:20.411Z,18.20
2022-08-07T23:14:22.735Z,18.14
2022-08-07T23:17:20.299Z,18.17
2022-08-07T23:20:40.730Z,18.13
2022-08-07T23:23:06.745Z,18.10
2022-08-07T23:26:05.609Z,17.93
2022-08-07T23:28:48.769Z,17.92
2022-08-07T23:32:49.678Z,17.91
2022-08-07T23:34:39.361Z,17.75
2022-08-07T23:38:01.545Z,17.71
2022-08-07T23:40:24.132Z,17.70
2022-08-07T23:43:27.148Z,17.76
2022-08-07T23:46:10.931Z,17.60
2022-08-07T23:48:58.692Z,17.88
2022-08-07T23:53:00.900Z,17.66
2022-08-07T23:54:35.848Z,17.65
2022-08-07T23:56:59.581Z,17.54
